Ashland, Montana
Current Conditions -  °F | °C
As of 8:53 PM on Thursday 27 Nov 2014 (Local Time) from KMLS Reporting Station
Scattered Clouds Scattered Clouds  
Wind Chill: 32°   Ceiling: Unl
Heat Index: 37°   Visibility: 10mi
Dew Point: 32°   Wind: 7mph
Humidity: 82%   Direction: 160°SSE
Pressure: 29.75"   Gusts: NA
Location:  45.62°N, 106.31°W
Report Text: KMLS 280353Z AUTO 16006KT 10SM FEW100 SCT110 03/00 A2975 RMK AO2 SLP096 T00280000
Loading
Personal Weather Stations






























Interactive Weather Map New forecast layout! Learn more

10-Day Weather Forecast

Advertisements
Track Severe Weather on mobile